sensor_id;sensor_type;location;lat;lon;timestamp;P1;durP1;ratioP1;P2;durP2;ratioP2
50631;SDS011;49583;45.590;-122.498;2022-08-04T00:00:07;8.50;;;2.20;;
50631;SDS011;49583;45.590;-122.498;2022-08-04T00:06:22;3.90;;;2.00;;
50631;SDS011;49583;45.590;-122.498;2022-08-04T00:08:53;3.60;;;2.00;;
50631;SDS011;49583;45.590;-122.498;2022-08-04T00:11:09;7.70;;;1.70;;
50631;SDS011;49583;45.590;-122.498;2022-08-04T00:14:01;1.90;;;1.50;;
50631;SDS011;49583;45.590;-122.498;2022-08-04T00:16:14;4.50;;;2.40;;
50631;SDS011;49583;45.590;-122.498;2022-08-04T00:18:28;3.80;;;1.80;;
50631;SDS011;49583;45.590;-122.498;2022-08-04T00:21:05;2.80;;;2.00;;
50631;SDS011;49583;45.590;-122.498;2022-08-04T00:23:36;5.70;;;1.90;;
50631;SDS011;49583;45.590;-122.498;2022-08-04T00:29:06;5.90;;;1.70;;
50631;SDS011;49583;45.590;-122.498;2022-08-04T00:31:40;4.50;;;1.70;;
50631;SDS011;49583;45.590;-122.498;2022-08-04T00:34:11;2.70;;;1.60;;
50631;SDS011;49583;45.590;-122.498;2022-08-04T00:36:31;4.00;;;2.20;;
50631;SDS011;49583;45.590;-122.498;2022-08-04T00:39:28;6.70;;;2.40;;
50631;SDS011;49583;45.590;-122.498;2022-08-04T00:45:24;4.90;;;1.70;;
50631;SDS011;49583;45.590;-122.498;2022-08-04T01:00:57;3.60;;;1.50;;
50631;SDS011;49583;45.590;-122.498;2022-08-04T01:04:10;3.10;;;1.80;;
50631;SDS011;49583;45.590;-122.498;2022-08-04T01:09:40;2.80;;;1.70;;
50631;SDS011;49583;45.590;-122.498;2022-08-04T01:27:34;7.30;;;2.00;;
50631;SDS011;49583;45.590;-122.498;2022-08-04T01:36:27;4.40;;;2.10;;
50631;SDS011;49583;45.590;-122.498;2022-08-04T01:39:32;4.70;;;1.90;;
50631;SDS011;49583;45.590;-122.498;2022-08-04T01:42:11;5.60;;;2.00;;
50631;SDS011;49583;45.590;-122.498;2022-08-04T01:47:56;3.60;;;1.50;;
50631;SDS011;49583;45.590;-122.498;2022-08-04T01:50:13;3.90;;;2.30;;
50631;SDS011;49583;45.590;-122.498;2022-08-04T01:52:55;3.40;;;1.90;;
50631;SDS011;49583;45.590;-122.498;2022-08-04T01:58:40;2.30;;;2.00;;
50631;SDS011;49583;45.590;-122.498;2022-08-04T02:01:16;3.00;;;2.20;;
50631;SDS011;49583;45.590;-122.498;2022-08-04T02:21:32;2.10;;;1.90;;
50631;SDS011;49583;45.590;-122.498;2022-08-04T02:24:03;3.40;;;1.80;;
50631;SDS011;49583;45.590;-122.498;2022-08-04T02:32:57;5.90;;;2.40;;
50631;SDS011;49583;45.590;-122.498;2022-08-04T02:35:24;5.20;;;2.00;;
50631;SDS011;49583;45.590;-122.498;2022-08-04T02:41:39;4.30;;;2.20;;
50631;SDS011;49583;45.590;-122.498;2022-08-04T02:46:52;3.60;;;2.00;;
50631;SDS011;49583;45.590;-122.498;2022-08-04T02:49:38;2.90;;;1.10;;
50631;SDS011;49583;45.590;-122.498;2022-08-04T02:52:10;3.60;;;1.30;;
50631;SDS011;49583;45.590;-122.498;2022-08-04T02:54:34;2.20;;;1.30;;
50631;SDS011;49583;45.590;-122.498;2022-08-04T02:57:27;3.10;;;1.60;;
50631;SDS011;49583;45.590;-122.498;2022-08-04T03:24:40;8.70;;;2.00;;
50631;SDS011;49583;45.590;-122.498;2022-08-04T03:30:50;3.50;;;1.40;;
50631;SDS011;49583;45.590;-122.498;2022-08-04T03:33:39;1.40;;;1.20;;
50631;SDS011;49583;45.590;-122.498;2022-08-04T03:39:43;6.20;;;1.70;;
50631;SDS011;49583;45.590;-122.498;2022-08-04T04:02:42;3.70;;;1.70;;
50631;SDS011;49583;45.590;-122.498;2022-08-04T04:08:55;3.70;;;1.30;;
50631;SDS011;49583;45.590;-122.498;2022-08-04T04:23:56;3.30;;;1.40;;
50631;SDS011;49583;45.590;-122.498;2022-08-04T04:37:24;1.50;;;1.30;;
50631;SDS011;49583;45.590;-122.498;2022-08-04T04:58:29;6.20;;;1.70;;
50631;SDS011;49583;45.590;-122.498;2022-08-04T05:16:16;1.40;;;1.30;;
50631;SDS011;49583;45.590;-122.498;2022-08-04T05:18:48;1.40;;;1.30;;
50631;SDS011;49583;45.590;-122.498;2022-08-04T05:21:47;2.70;;;1.20;;
50631;SDS011;49583;45.590;-122.498;2022-08-04T05:26:34;1.50;;;0.90;;
50631;SDS011;49583;45.590;-122.498;2022-08-04T05:29:32;3.20;;;1.30;;
50631;SDS011;49583;45.590;-122.498;2022-08-04T05:35:08;3.20;;;1.40;;
50631;SDS011;49583;45.590;-122.498;2022-08-04T05:37:51;5.80;;;1.20;;
50631;SDS011;49583;45.590;-122.498;2022-08-04T05:43:06;5.60;;;1.70;;
50631;SDS011;49583;45.590;-122.498;2022-08-04T05:45:24;4.20;;;1.30;;
50631;SDS011;49583;45.590;-122.498;2022-08-04T05:47:53;2.70;;;1.60;;
50631;SDS011;49583;45.590;-122.498;2022-08-04T05:50:26;4.60;;;2.10;;
50631;SDS011;49583;45.590;-122.498;2022-08-04T05:52:50;4.60;;;1.70;;
50631;SDS011;49583;45.590;-122.498;2022-08-04T05:55:08;3.30;;;1.20;;
50631;SDS011;49583;45.590;-122.498;2022-08-04T05:58:04;2.60;;;1.10;;
50631;SDS011;49583;45.590;-122.498;2022-08-04T06:00:23;2.90;;;1.30;;
50631;SDS011;49583;45.590;-122.498;2022-08-04T06:03:04;2.30;;;1.20;;
50631;SDS011;49583;45.590;-122.498;2022-08-04T06:05:53;1.40;;;1.30;;
50631;SDS011;49583;45.590;-122.498;2022-08-04T06:08:47;2.30;;;1.00;;
50631;SDS011;49583;45.590;-122.498;2022-08-04T06:11:16;1.30;;;0.90;;
50631;SDS011;49583;45.590;-122.498;2022-08-04T06:14:17;1.80;;;1.00;;
50631;SDS011;49583;45.590;-122.498;2022-08-04T06:17:15;1.80;;;1.10;;
50631;SDS011;49583;45.590;-122.498;2022-08-04T06:19:55;2.40;;;0.70;;
50631;SDS011;49583;45.590;-122.498;2022-08-04T06:22:26;1.20;;;0.90;;
50631;SDS011;49583;45.590;-122.498;2022-08-04T06:24:52;1.50;;;1.10;;
50631;SDS011;49583;45.590;-122.498;2022-08-04T06:27:05;1.40;;;1.00;;
50631;SDS011;49583;45.590;-122.498;2022-08-04T06:29:27;2.40;;;1.10;;
50631;SDS011;49583;45.590;-122.498;2022-08-04T06:32:21;1.00;;;0.80;;
50631;SDS011;49583;45.590;-122.498;2022-08-04T06:45:57;0.70;;;0.70;;
50631;SDS011;49583;45.590;-122.498;2022-08-04T06:48:12;1.90;;;0.80;;
50631;SDS011;49583;45.590;-122.498;2022-08-04T06:50:48;2.20;;;0.90;;
50631;SDS011;49583;45.590;-122.498;2022-08-04T06:53:39;1.60;;;1.00;;
50631;SDS011;49583;45.590;-122.498;2022-08-04T06:56:00;2.60;;;0.90;;
50631;SDS011;49583;45.590;-122.498;2022-08-04T06:58:19;1.90;;;0.60;;
50631;SDS011;49583;45.590;-122.498;2022-08-04T07:03:01;1.90;;;0.70;;
50631;SDS011;49583;45.590;-122.498;2022-08-04T07:05:42;1.70;;;0.70;;
50631;SDS011;49583;45.590;-122.498;2022-08-04T07:08:08;0.70;;;0.70;;
50631;SDS011;49583;45.590;-122.498;2022-08-04T07:12:59;0.70;;;0.60;;
50631;SDS011;49583;45.590;-122.498;2022-08-04T07:17:53;1.40;;;0.80;;
50631;SDS011;49583;45.590;-122.498;2022-08-04T07:20:24;0.60;;;0.60;;
50631;SDS011;49583;45.590;-122.498;2022-08-04T07:23:07;0.90;;;0.70;;
50631;SDS011;49583;45.590;-122.498;2022-08-04T07:28:31;1.00;;;0.60;;
50631;SDS011;49583;45.590;-122.498;2022-08-04T07:30:51;2.70;;;0.80;;
50631;SDS011;49583;45.590;-122.498;2022-08-04T07:33:10;1.30;;;0.70;;
50631;SDS011;49583;45.590;-122.498;2022-08-04T07:38:18;0.90;;;0.70;;
50631;SDS011;49583;45.590;-122.498;2022-08-04T07:40:56;1.40;;;1.00;;
50631;SDS011;49583;45.590;-122.498;2022-08-04T07:46:37;1.30;;;0.60;;
50631;SDS011;49583;45.590;-122.498;2022-08-04T07:49:14;3.20;;;1.00;;
50631;SDS011;49583;45.590;-122.498;2022-08-04T07:57:16;0.80;;;0.70;;
50631;SDS011;49583;45.590;-122.498;2022-08-04T07:59:48;0.60;;;0.60;;
50631;SDS011;49583;45.590;-122.498;2022-08-04T08:02:38;0.90;;;0.70;;
50631;SDS011;49583;45.590;-122.498;2022-08-04T08:08:47;0.80;;;0.80;;
50631;SDS011;49583;45.590;-122.498;2022-08-04T08:11:20;1.10;;;0.80;;
50631;SDS011;49583;45.590;-122.498;2022-08-04T08:14:17;0.60;;;0.60;;
50631;SDS011;49583;45.590;-122.498;2022-08-04T08:22:06;2.30;;;0.60;;
50631;SDS011;49583;45.590;-122.498;2022-08-04T08:24:30;1.00;;;0.80;;
50631;SDS011;49583;45.590;-122.498;2022-08-04T08:26:45;2.10;;;0.80;;
50631;SDS011;49583;45.590;-122.498;2022-08-04T08:29:13;0.80;;;0.70;;
50631;SDS011;49583;45.590;-122.498;2022-08-04T08:31:37;1.40;;;0.90;;
50631;SDS011;49583;45.590;-122.498;2022-08-04T08:34:12;1.20;;;0.80;;
50631;SDS011;49583;45.590;-122.498;2022-08-04T08:36:37;1.00;;;0.70;;
50631;SDS011;49583;45.590;-122.498;2022-08-04T08:51:01;0.80;;;0.70;;
50631;SDS011;49583;45.590;-122.498;2022-08-04T08:53:58;0.60;;;0.60;;
50631;SDS011;49583;45.590;-122.498;2022-08-04T09:03:16;1.20;;;1.10;;
50631;SDS011;49583;45.590;-122.498;2022-08-04T09:12:29;1.60;;;0.80;;
50631;SDS011;49583;45.590;-122.498;2022-08-04T09:19:56;0.70;;;0.70;;
50631;SDS011;49583;45.590;-122.498;2022-08-04T09:25:29;2.20;;;0.70;;
50631;SDS011;49583;45.590;-122.498;2022-08-04T09:34:19;1.40;;;0.90;;
50631;SDS011;49583;45.590;-122.498;2022-08-04T09:42:13;0.90;;;0.80;;
50631;SDS011;49583;45.590;-122.498;2022-08-04T09:45:11;0.90;;;0.80;;
50631;SDS011;49583;45.590;-122.498;2022-08-04T09:50:36;1.40;;;0.90;;
50631;SDS011;49583;45.590;-122.498;2022-08-04T09:56:16;4.60;;;1.40;;
50631;SDS011;49583;45.590;-122.498;2022-08-04T09:58:49;4.80;;;1.20;;
50631;SDS011;49583;45.590;-122.498;2022-08-04T10:01:19;5.70;;;1.30;;
50631;SDS011;49583;45.590;-122.498;2022-08-04T10:03:40;0.90;;;0.80;;
50631;SDS011;49583;45.590;-122.498;2022-08-04T10:06:05;0.70;;;0.60;;
50631;SDS011;49583;45.590;-122.498;2022-08-04T10:08:36;1.00;;;0.60;;
50631;SDS011;49583;45.590;-122.498;2022-08-04T10:22:40;3.40;;;1.00;;
50631;SDS011;49583;45.590;-122.498;2022-08-04T10:28:14;1.40;;;0.60;;
50631;SDS011;49583;45.590;-122.498;2022-08-04T10:31:32;0.90;;;0.70;;
50631;SDS011;49583;45.590;-122.498;2022-08-04T10:34:08;0.70;;;0.70;;
50631;SDS011;49583;45.590;-122.498;2022-08-04T10:37:17;0.60;;;0.60;;
50631;SDS011;49583;45.590;-122.498;2022-08-04T10:46:41;2.10;;;1.10;;
50631;SDS011;49583;45.590;-122.498;2022-08-04T10:55:22;1.10;;;0.60;;
50631;SDS011;49583;45.590;-122.498;2022-08-04T10:58:34;0.90;;;0.60;;
50631;SDS011;49583;45.590;-122.498;2022-08-04T11:04:35;1.30;;;1.00;;
50631;SDS011;49583;45.590;-122.498;2022-08-04T11:06:59;0.90;;;0.80;;
50631;SDS011;49583;45.590;-122.498;2022-08-04T11:09:21;1.70;;;1.00;;
50631;SDS011;49583;45.590;-122.498;2022-08-04T11:12:03;0.80;;;0.60;;
50631;SDS011;49583;45.590;-122.498;2022-08-04T11:14:55;5.70;;;1.10;;
50631;SDS011;49583;45.590;-122.498;2022-08-04T11:17:23;1.10;;;1.00;;
50631;SDS011;49583;45.590;-122.498;2022-08-04T11:23:12;1.20;;;0.90;;
50631;SDS011;49583;45.590;-122.498;2022-08-04T11:25:49;1.20;;;0.80;;
50631;SDS011;49583;45.590;-122.498;2022-08-04T11:30:42;0.80;;;0.70;;
50631;SDS011;49583;45.590;-122.498;2022-08-04T11:36:35;1.00;;;0.70;;
50631;SDS011;49583;45.590;-122.498;2022-08-04T11:43:18;0.90;;;0.80;;
50631;SDS011;49583;45.590;-122.498;2022-08-04T11:46:06;0.90;;;0.60;;
50631;SDS011;49583;45.590;-122.498;2022-08-04T11:48:28;1.40;;;1.00;;
50631;SDS011;49583;45.590;-122.498;2022-08-04T11:56:04;0.90;;;0.70;;
50631;SDS011;49583;45.590;-122.498;2022-08-04T11:58:28;1.00;;;0.90;;
50631;SDS011;49583;45.590;-122.498;2022-08-04T12:18:01;1.00;;;0.60;;
50631;SDS011;49583;45.590;-122.498;2022-08-04T12:20:38;1.00;;;0.90;;
50631;SDS011;49583;45.590;-122.498;2022-08-04T12:22:57;0.90;;;0.80;;
50631;SDS011;49583;45.590;-122.498;2022-08-04T12:25:20;1.60;;;0.90;;
50631;SDS011;49583;45.590;-122.498;2022-08-04T12:28:11;2.00;;;0.80;;
50631;SDS011;49583;45.590;-122.498;2022-08-04T12:30:35;1.50;;;0.80;;
50631;SDS011;49583;45.590;-122.498;2022-08-04T12:39:34;1.20;;;0.70;;
50631;SDS011;49583;45.590;-122.498;2022-08-04T12:42:25;1.30;;;0.90;;
50631;SDS011;49583;45.590;-122.498;2022-08-04T12:44:44;4.00;;;1.60;;
50631;SDS011;49583;45.590;-122.498;2022-08-04T12:46:55;2.90;;;1.80;;
50631;SDS011;49583;45.590;-122.498;2022-08-04T12:51:38;6.40;;;2.30;;
50631;SDS011;49583;45.590;-122.498;2022-08-04T12:54:21;3.80;;;2.10;;
50631;SDS011;49583;45.590;-122.498;2022-08-04T12:56:35;2.40;;;2.20;;
50631;SDS011;49583;45.590;-122.498;2022-08-04T12:59:03;5.80;;;2.80;;
50631;SDS011;49583;45.590;-122.498;2022-08-04T13:04:15;3.30;;;2.00;;
50631;SDS011;49583;45.590;-122.498;2022-08-04T13:06:35;3.00;;;2.50;;
50631;SDS011;49583;45.590;-122.498;2022-08-04T13:12:13;2.90;;;2.30;;
50631;SDS011;49583;45.590;-122.498;2022-08-04T13:14:36;2.60;;;2.00;;
50631;SDS011;49583;45.590;-122.498;2022-08-04T13:17:06;3.30;;;2.00;;
50631;SDS011;49583;45.590;-122.498;2022-08-04T13:19:13;3.00;;;2.40;;
50631;SDS011;49583;45.590;-122.498;2022-08-04T13:21:21;4.30;;;2.70;;
50631;SDS011;49583;45.590;-122.498;2022-08-04T13:24:01;3.60;;;2.40;;
50631;SDS011;49583;45.590;-122.498;2022-08-04T13:27:04;7.80;;;2.60;;
50631;SDS011;49583;45.590;-122.498;2022-08-04T13:29:57;3.20;;;2.20;;
50631;SDS011;49583;45.590;-122.498;2022-08-04T13:32:18;4.30;;;2.40;;
50631;SDS011;49583;45.590;-122.498;2022-08-04T13:34:33;4.00;;;2.60;;
50631;SDS011;49583;45.590;-122.498;2022-08-04T13:37:16;2.70;;;2.40;;
50631;SDS011;49583;45.590;-122.498;2022-08-04T13:39:33;21.20;;;3.90;;
50631;SDS011;49583;45.590;-122.498;2022-08-04T13:41:59;5.20;;;2.80;;
50631;SDS011;49583;45.590;-122.498;2022-08-04T13:47:32;3.30;;;2.70;;
50631;SDS011;49583;45.590;-122.498;2022-08-04T13:52:33;3.20;;;2.40;;
50631;SDS011;49583;45.590;-122.498;2022-08-04T13:54:47;6.10;;;2.50;;
50631;SDS011;49583;45.590;-122.498;2022-08-04T13:57:55;4.40;;;2.10;;
50631;SDS011;49583;45.590;-122.498;2022-08-04T14:00:42;4.10;;;2.40;;
50631;SDS011;49583;45.590;-122.498;2022-08-04T14:03:19;4.30;;;2.50;;
50631;SDS011;49583;45.590;-122.498;2022-08-04T14:06:05;3.00;;;2.20;;
50631;SDS011;49583;45.590;-122.498;2022-08-04T14:08:42;2.30;;;2.10;;
50631;SDS011;49583;45.590;-122.498;2022-08-04T14:11:01;5.70;;;2.30;;
50631;SDS011;49583;45.590;-122.498;2022-08-04T14:14:18;3.00;;;2.20;;
50631;SDS011;49583;45.590;-122.498;2022-08-04T14:19:49;8.80;;;2.00;;
50631;SDS011;49583;45.590;-122.498;2022-08-04T14:22:00;3.80;;;2.20;;
50631;SDS011;49583;45.590;-122.498;2022-08-04T14:24:30;2.80;;;2.50;;
50631;SDS011;49583;45.590;-122.498;2022-08-04T14:27:01;2.90;;;2.20;;
50631;SDS011;49583;45.590;-122.498;2022-08-04T14:33:13;4.10;;;2.20;;
50631;SDS011;49583;45.590;-122.498;2022-08-04T14:35:29;2.70;;;1.80;;
50631;SDS011;49583;45.590;-122.498;2022-08-04T14:38:05;4.70;;;2.30;;
50631;SDS011;49583;45.590;-122.498;2022-08-04T14:43:26;2.90;;;1.80;;
50631;SDS011;49583;45.590;-122.498;2022-08-04T14:45:41;5.50;;;1.90;;
50631;SDS011;49583;45.590;-122.498;2022-08-04T14:48:04;2.80;;;2.30;;
50631;SDS011;49583;45.590;-122.498;2022-08-04T14:50:23;3.70;;;2.20;;
50631;SDS011;49583;45.590;-122.498;2022-08-04T14:58:42;2.70;;;2.10;;
50631;SDS011;49583;45.590;-122.498;2022-08-04T15:01:10;3.80;;;2.10;;
50631;SDS011;49583;45.590;-122.498;2022-08-04T15:03:35;3.10;;;1.90;;
50631;SDS011;49583;45.590;-122.498;2022-08-04T15:08:52;4.10;;;2.40;;
50631;SDS011;49583;45.590;-122.498;2022-08-04T15:11:04;3.60;;;1.90;;
50631;SDS011;49583;45.590;-122.498;2022-08-04T15:13:27;3.00;;;2.00;;
50631;SDS011;49583;45.590;-122.498;2022-08-04T15:15:41;2.80;;;2.00;;
50631;SDS011;49583;45.590;-122.498;2022-08-04T15:18:14;9.70;;;2.30;;
50631;SDS011;49583;45.590;-122.498;2022-08-04T15:20:28;5.20;;;3.20;;
50631;SDS011;49583;45.590;-122.498;2022-08-04T15:23:07;5.50;;;2.00;;
50631;SDS011;49583;45.590;-122.498;2022-08-04T15:25:15;4.00;;;1.90;;
50631;SDS011;49583;45.590;-122.498;2022-08-04T15:27:27;4.00;;;2.00;;
50631;SDS011;49583;45.590;-122.498;2022-08-04T15:38:15;5.20;;;2.00;;
50631;SDS011;49583;45.590;-122.498;2022-08-04T15:41:30;3.90;;;1.70;;
50631;SDS011;49583;45.590;-122.498;2022-08-04T15:49:18;2.60;;;1.60;;
50631;SDS011;49583;45.590;-122.498;2022-08-04T15:52:00;5.00;;;2.10;;
50631;SDS011;49583;45.590;-122.498;2022-08-04T15:54:36;3.50;;;2.30;;
50631;SDS011;49583;45.590;-122.498;2022-08-04T15:57:16;4.90;;;2.00;;
50631;SDS011;49583;45.590;-122.498;2022-08-04T15:59:59;3.80;;;2.20;;
50631;SDS011;49583;45.590;-122.498;2022-08-04T16:02:28;3.20;;;1.80;;
50631;SDS011;49583;45.590;-122.498;2022-08-04T16:04:47;3.90;;;1.90;;
50631;SDS011;49583;45.590;-122.498;2022-08-04T16:07:17;4.60;;;2.10;;
50631;SDS011;49583;45.590;-122.498;2022-08-04T16:09:24;3.80;;;1.80;;
50631;SDS011;49583;45.590;-122.498;2022-08-04T16:11:59;3.00;;;1.90;;
50631;SDS011;49583;45.590;-122.498;2022-08-04T16:20:02;3.50;;;2.20;;
50631;SDS011;49583;45.590;-122.498;2022-08-04T16:27:50;3.00;;;2.00;;
50631;SDS011;49583;45.590;-122.498;2022-08-04T16:30:07;3.60;;;1.70;;
50631;SDS011;49583;45.590;-122.498;2022-08-04T16:32:47;2.30;;;1.80;;
50631;SDS011;49583;45.590;-122.498;2022-08-04T16:35:29;7.00;;;1.90;;
50631;SDS011;49583;45.590;-122.498;2022-08-04T16:38:09;3.80;;;2.20;;
50631;SDS011;49583;45.590;-122.498;2022-08-04T16:40:43;2.10;;;1.50;;
50631;SDS011;49583;45.590;-122.498;2022-08-04T16:43:44;2.30;;;1.90;;
50631;SDS011;49583;45.590;-122.498;2022-08-04T16:46:09;1.90;;;1.50;;
50631;SDS011;49583;45.590;-122.498;2022-08-04T16:48:36;3.30;;;2.20;;
50631;SDS011;49583;45.590;-122.498;2022-08-04T16:50:47;2.50;;;1.80;;
50631;SDS011;49583;45.590;-122.498;2022-08-04T16:53:13;2.30;;;1.50;;
50631;SDS011;49583;45.590;-122.498;2022-08-04T16:55:55;3.10;;;1.80;;
50631;SDS011;49583;45.590;-122.498;2022-08-04T16:58:07;4.30;;;1.90;;
50631;SDS011;49583;45.590;-122.498;2022-08-04T17:00:15;2.50;;;1.90;;
50631;SDS011;49583;45.590;-122.498;2022-08-04T17:02:46;3.90;;;1.80;;
50631;SDS011;49583;45.590;-122.498;2022-08-04T17:05:24;3.70;;;1.90;;
50631;SDS011;49583;45.590;-122.498;2022-08-04T17:10:54;4.20;;;2.10;;
50631;SDS011;49583;45.590;-122.498;2022-08-04T17:13:28;4.00;;;2.20;;
50631;SDS011;49583;45.590;-122.498;2022-08-04T17:16:28;2.50;;;1.90;;
50631;SDS011;49583;45.590;-122.498;2022-08-04T17:19:24;4.20;;;1.90;;
50631;SDS011;49583;45.590;-122.498;2022-08-04T17:24:53;2.40;;;1.90;;
50631;SDS011;49583;45.590;-122.498;2022-08-04T17:27:11;2.20;;;1.90;;
50631;SDS011;49583;45.590;-122.498;2022-08-04T17:29:41;5.10;;;2.50;;
50631;SDS011;49583;45.590;-122.498;2022-08-04T17:34:12;3.80;;;2.40;;
50631;SDS011;49583;45.590;-122.498;2022-08-04T17:36:33;3.90;;;1.90;;
50631;SDS011;49583;45.590;-122.498;2022-08-04T17:38:58;4.20;;;2.00;;
50631;SDS011;49583;45.590;-122.498;2022-08-04T17:41:32;3.40;;;2.20;;
50631;SDS011;49583;45.590;-122.498;2022-08-04T17:43:53;3.90;;;2.10;;
50631;SDS011;49583;45.590;-122.498;2022-08-04T17:49:10;5.40;;;2.60;;
50631;SDS011;49583;45.590;-122.498;2022-08-04T17:51:55;5.80;;;2.00;;
50631;SDS011;49583;45.590;-122.498;2022-08-04T17:55:08;2.50;;;2.00;;
50631;SDS011;49583;45.590;-122.498;2022-08-04T17:58:13;4.20;;;2.10;;
50631;SDS011;49583;45.590;-122.498;2022-08-04T18:01:25;4.50;;;1.80;;
50631;SDS011;49583;45.590;-122.498;2022-08-04T18:10:41;3.40;;;2.00;;
50631;SDS011;49583;45.590;-122.498;2022-08-04T18:13:24;2.90;;;1.70;;
50631;SDS011;49583;45.590;-122.498;2022-08-04T18:15:35;2.30;;;2.10;;
50631;SDS011;49583;45.590;-122.498;2022-08-04T18:17:51;2.30;;;1.70;;
50631;SDS011;49583;45.590;-122.498;2022-08-04T18:20:47;2.00;;;1.80;;
50631;SDS011;49583;45.590;-122.498;2022-08-04T18:23:12;5.20;;;1.80;;
50631;SDS011;49583;45.590;-122.498;2022-08-04T18:25:55;2.50;;;1.80;;
50631;SDS011;49583;45.590;-122.498;2022-08-04T18:36:37;3.50;;;1.60;;
50631;SDS011;49583;45.590;-122.498;2022-08-04T18:39:04;2.00;;;1.80;;
50631;SDS011;49583;45.590;-122.498;2022-08-04T18:42:15;3.00;;;1.40;;
50631;SDS011;49583;45.590;-122.498;2022-08-04T18:47:29;2.60;;;1.40;;
50631;SDS011;49583;45.590;-122.498;2022-08-04T18:50:24;1.60;;;1.40;;
50631;SDS011;49583;45.590;-122.498;2022-08-04T18:53:36;2.00;;;1.50;;
50631;SDS011;49583;45.590;-122.498;2022-08-04T18:59:34;2.10;;;1.00;;
50631;SDS011;49583;45.590;-122.498;2022-08-04T19:04:39;3.50;;;1.00;;
50631;SDS011;49583;45.590;-122.498;2022-08-04T19:07:01;3.30;;;1.80;;
50631;SDS011;49583;45.590;-122.498;2022-08-04T19:09:47;2.80;;;1.50;;
50631;SDS011;49583;45.590;-122.498;2022-08-04T19:12:25;6.00;;;1.60;;
50631;SDS011;49583;45.590;-122.498;2022-08-04T19:15:01;2.20;;;1.40;;
50631;SDS011;49583;45.590;-122.498;2022-08-04T19:17:25;1.30;;;1.00;;
50631;SDS011;49583;45.590;-122.498;2022-08-04T19:29:30;1.80;;;1.00;;
50631;SDS011;49583;45.590;-122.498;2022-08-04T19:32:44;2.90;;;0.80;;
50631;SDS011;49583;45.590;-122.498;2022-08-04T19:40:12;1.40;;;1.20;;
50631;SDS011;49583;45.590;-122.498;2022-08-04T19:42:41;1.70;;;1.20;;
50631;SDS011;49583;45.590;-122.498;2022-08-04T19:44:54;2.00;;;1.20;;
50631;SDS011;49583;45.590;-122.498;2022-08-04T19:53:36;1.60;;;1.20;;
50631;SDS011;49583;45.590;-122.498;2022-08-04T19:56:15;2.30;;;1.80;;
50631;SDS011;49583;45.590;-122.498;2022-08-04T19:58:48;2.70;;;0.90;;
50631;SDS011;49583;45.590;-122.498;2022-08-04T20:01:27;3.30;;;0.70;;
50631;SDS011;49583;45.590;-122.498;2022-08-04T20:08:50;2.70;;;0.80;;
50631;SDS011;49583;45.590;-122.498;2022-08-04T20:11:59;1.30;;;0.80;;
50631;SDS011;49583;45.590;-122.498;2022-08-04T20:16:55;0.90;;;0.70;;
50631;SDS011;49583;45.590;-122.498;2022-08-04T20:19:11;1.30;;;0.70;;
50631;SDS011;49583;45.590;-122.498;2022-08-04T20:22:05;1.60;;;0.80;;
50631;SDS011;49583;45.590;-122.498;2022-08-04T20:27:54;1.00;;;0.70;;
50631;SDS011;49583;45.590;-122.498;2022-08-04T20:30:21;0.90;;;0.80;;
50631;SDS011;49583;45.590;-122.498;2022-08-04T20:38:33;2.30;;;1.00;;
50631;SDS011;49583;45.590;-122.498;2022-08-04T20:40:53;1.30;;;0.70;;
50631;SDS011;49583;45.590;-122.498;2022-08-04T20:43:01;2.10;;;0.80;;
50631;SDS011;49583;45.590;-122.498;2022-08-04T20:45:41;2.00;;;0.80;;
50631;SDS011;49583;45.590;-122.498;2022-08-04T20:54:24;0.90;;;0.60;;
50631;SDS011;49583;45.590;-122.498;2022-08-04T20:56:54;1.00;;;0.60;;
50631;SDS011;49583;45.590;-122.498;2022-08-04T20:59:57;0.70;;;0.70;;
50631;SDS011;49583;45.590;-122.498;2022-08-04T21:02:17;3.20;;;0.60;;
50631;SDS011;49583;45.590;-122.498;2022-08-04T21:04:52;2.00;;;0.50;;
50631;SDS011;49583;45.590;-122.498;2022-08-04T21:07:33;2.80;;;0.80;;
50631;SDS011;49583;45.590;-122.498;2022-08-04T21:10:40;1.70;;;0.70;;
50631;SDS011;49583;45.590;-122.498;2022-08-04T21:13:06;0.60;;;0.60;;
50631;SDS011;49583;45.590;-122.498;2022-08-04T21:15:56;0.60;;;0.60;;
50631;SDS011;49583;45.590;-122.498;2022-08-04T21:19:22;0.80;;;0.50;;
50631;SDS011;49583;45.590;-122.498;2022-08-04T21:27:39;1.10;;;0.60;;
50631;SDS011;49583;45.590;-122.498;2022-08-04T21:29:49;0.60;;;0.50;;
50631;SDS011;49583;45.590;-122.498;2022-08-04T21:35:17;1.90;;;0.80;;
50631;SDS011;49583;45.590;-122.498;2022-08-04T21:38:00;2.70;;;0.60;;
50631;SDS011;49583;45.590;-122.498;2022-08-04T21:40:19;0.50;;;0.50;;
50631;SDS011;49583;45.590;-122.498;2022-08-04T21:45:28;0.80;;;0.40;;
50631;SDS011;49583;45.590;-122.498;2022-08-04T21:48:11;0.50;;;0.50;;
50631;SDS011;49583;45.590;-122.498;2022-08-04T21:50:38;1.70;;;0.70;;
50631;SDS011;49583;45.590;-122.498;2022-08-04T21:56:00;0.90;;;0.50;;
50631;SDS011;49583;45.590;-122.498;2022-08-04T22:00:58;0.70;;;0.50;;
50631;SDS011;49583;45.590;-122.498;2022-08-04T22:06:21;3.40;;;0.60;;
50631;SDS011;49583;45.590;-122.498;2022-08-04T22:14:58;2.80;;;0.30;;
50631;SDS011;49583;45.590;-122.498;2022-08-04T22:17:36;1.00;;;0.50;;
50631;SDS011;49583;45.590;-122.498;2022-08-04T22:19:51;2.90;;;0.40;;
50631;SDS011;49583;45.590;-122.498;2022-08-04T22:22:20;1.00;;;0.50;;
50631;SDS011;49583;45.590;-122.498;2022-08-04T22:24:33;1.90;;;0.50;;
50631;SDS011;49583;45.590;-122.498;2022-08-04T22:26:50;0.70;;;0.40;;
50631;SDS011;49583;45.590;-122.498;2022-08-04T22:29:51;0.40;;;0.40;;
50631;SDS011;49583;45.590;-122.498;2022-08-04T22:32:15;1.70;;;0.50;;
50631;SDS011;49583;45.590;-122.498;2022-08-04T22:34:58;1.30;;;0.50;;
50631;SDS011;49583;45.590;-122.498;2022-08-04T22:37:36;0.40;;;0.40;;
50631;SDS011;49583;45.590;-122.498;2022-08-04T22:40:15;3.50;;;0.30;;
50631;SDS011;49583;45.590;-122.498;2022-08-04T22:42:54;1.20;;;0.50;;
50631;SDS011;49583;45.590;-122.498;2022-08-04T22:45:42;2.20;;;0.90;;
50631;SDS011;49583;45.590;-122.498;2022-08-04T22:47:59;0.90;;;0.40;;
50631;SDS011;49583;45.590;-122.498;2022-08-04T22:53:12;1.10;;;0.70;;
50631;SDS011;49583;45.590;-122.498;2022-08-04T22:55:24;0.40;;;0.40;;
50631;SDS011;49583;45.590;-122.498;2022-08-04T22:58:10;1.60;;;0.40;;
50631;SDS011;49583;45.590;-122.498;2022-08-04T23:00:23;0.50;;;0.40;;
50631;SDS011;49583;45.590;-122.498;2022-08-04T23:08:16;2.20;;;0.40;;
50631;SDS011;49583;45.590;-122.498;2022-08-04T23:10:49;0.50;;;0.30;;
50631;SDS011;49583;45.590;-122.498;2022-08-04T23:13:28;0.20;;;0.20;;
50631;SDS011;49583;45.590;-122.498;2022-08-04T23:21:39;1.40;;;0.30;;
50631;SDS011;49583;45.590;-122.498;2022-08-04T23:23:57;1.30;;;0.30;;
50631;SDS011;49583;45.590;-122.498;2022-08-04T23:29:21;3.70;;;0.50;;
50631;SDS011;49583;45.590;-122.498;2022-08-04T23:31:27;0.30;;;0.20;;
50631;SDS011;49583;45.590;-122.498;2022-08-04T23:34:05;0.80;;;0.40;;
50631;SDS011;49583;45.590;-122.498;2022-08-04T23:36:38;1.50;;;0.30;;
50631;SDS011;49583;45.590;-122.498;2022-08-04T23:45:55;0.50;;;0.40;;
50631;SDS011;49583;45.590;-122.498;2022-08-04T23:48:20;0.90;;;0.40;;
50631;SDS011;49583;45.590;-122.498;2022-08-04T23:51:25;0.40;;;0.30;;
50631;SDS011;49583;45.590;-122.498;2022-08-04T23:53:32;0.60;;;0.20;;
50631;SDS011;49583;45.590;-122.498;2022-08-04T23:56:13;0.50;;;0.50;;